sensor_id;sensor_type;location;lat;lon;timestamp;temperature;humidity
26721;HTU21D;15950;51.112;6.966;2022-09-01T04:48:51;24.32;48.99
26721;HTU21D;15950;51.112;6.966;2022-09-01T04:50:51;24.46;48.58
26721;HTU21D;15950;51.112;6.966;2022-09-01T04:52:51;24.61;48.12
26721;HTU21D;15950;51.112;6.966;2022-09-01T04:54:52;24.77;47.68
26721;HTU21D;15950;51.112;6.966;2022-09-01T04:56:52;24.87;47.38
26721;HTU21D;15950;51.112;6.966;2022-09-01T04:58:52;24.99;47.02
26721;HTU21D;15950;51.112;6.966;2022-09-01T05:00:53;25.08;46.73
26721;HTU21D;15950;51.112;6.966;2022-09-01T05:02:56;25.16;46.51
26721;HTU21D;15950;51.112;6.966;2022-09-01T05:04:54;25.26;46.28
26721;HTU21D;15950;51.112;6.966;2022-09-01T05:06:56;25.34;45.96
26721;HTU21D;15950;51.112;6.966;2022-09-01T05:08:55;25.38;45.83
26721;HTU21D;15950;51.112;6.966;2022-09-01T05:10:56;25.45;45.54
26721;HTU21D;15950;51.112;6.966;2022-09-01T05:12:56;25.47;45.37
26721;HTU21D;15950;51.112;6.966;2022-09-01T05:14:56;25.52;45.17
26721;HTU21D;15950;51.112;6.966;2022-09-01T05:16:57;25.56;44.93
26721;HTU21D;15950;51.112;6.966;2022-09-01T05:18:57;25.62;44.79
26721;HTU21D;15950;51.112;6.966;2022-09-01T05:20:57;25.63;44.72
26721;HTU21D;15950;51.112;6.966;2022-09-01T05:22:58;25.68;44.44
26721;HTU21D;15950;51.112;6.966;2022-09-01T05:24:59;25.72;44.29
26721;HTU21D;15950;51.112;6.966;2022-09-01T05:26:58;25.74;44.30
26721;HTU21D;15950;51.112;6.966;2022-09-01T05:29:02;25.78;44.04
26721;HTU21D;15950;51.112;6.966;2022-09-01T05:31:00;25.79;43.87
26721;HTU21D;15950;51.112;6.966;2022-09-01T05:33:00;25.82;43.80
26721;HTU21D;15950;51.112;6.966;2022-09-01T05:35:00;25.84;43.69
26721;HTU21D;15950;51.112;6.966;2022-09-01T05:37:01;25.85;43.33
26721;HTU21D;15950;51.112;6.966;2022-09-01T05:39:03;25.86;43.26
26721;HTU21D;15950;51.112;6.966;2022-09-01T05:41:03;25.91;43.06
26721;HTU21D;15950;51.112;6.966;2022-09-01T05:43:02;25.93;42.85
26721;HTU21D;15950;51.112;6.966;2022-09-01T05:45:02;25.89;42.93
26721;HTU21D;15950;51.112;6.966;2022-09-01T05:47:03;25.95;42.64
26721;HTU21D;15950;51.112;6.966;2022-09-01T05:49:04;25.97;42.55
26721;HTU21D;15950;51.112;6.966;2022-09-01T05:51:05;25.96;42.32
26721;HTU21D;15950;51.112;6.966;2022-09-01T05:53:04;26.00;42.17
26721;HTU21D;15950;51.112;6.966;2022-09-01T05:55:05;26.02;42.20
26721;HTU21D;15950;51.112;6.966;2022-09-01T05:57:05;26.01;42.32
26721;HTU21D;15950;51.112;6.966;2022-09-01T05:59:06;26.00;42.07
26721;HTU21D;15950;51.112;6.966;2022-09-01T06:01:06;26.00;41.74
26721;HTU21D;15950;51.112;6.966;2022-09-01T06:03:06;26.06;41.74
26721;HTU21D;15950;51.112;6.966;2022-09-01T06:05:07;26.10;41.48
26721;HTU21D;15950;51.112;6.966;2022-09-01T06:07:07;26.10;41.40
26721;HTU21D;15950;51.112;6.966;2022-09-01T06:09:09;26.14;41.34
26721;HTU21D;15950;51.112;6.966;2022-09-01T06:11:08;26.16;41.04
26721;HTU21D;15950;51.112;6.966;2022-09-01T06:13:09;26.13;41.00
26721;HTU21D;15950;51.112;6.966;2022-09-01T06:15:09;26.15;41.16
26721;HTU21D;15950;51.112;6.966;2022-09-01T06:17:10;26.15;41.04
26721;HTU21D;15950;51.112;6.966;2022-09-01T06:19:10;26.13;40.90
26721;HTU21D;15950;51.112;6.966;2022-09-01T06:21:11;26.16;40.82
26721;HTU21D;15950;51.112;6.966;2022-09-01T06:23:12;26.17;40.63
26721;HTU21D;15950;51.112;6.966;2022-09-01T06:25:12;26.21;40.50
26721;HTU21D;15950;51.112;6.966;2022-09-01T06:27:13;26.20;40.53
26721;HTU21D;15950;51.112;6.966;2022-09-01T06:29:13;26.21;40.62
26721;HTU21D;15950;51.112;6.966;2022-09-01T06:31:14;26.22;40.42
26721;HTU21D;15950;51.112;6.966;2022-09-01T06:33:14;26.21;40.39
26721;HTU21D;15950;51.112;6.966;2022-09-01T06:35:15;26.20;40.45
26721;HTU21D;15950;51.112;6.966;2022-09-01T06:37:20;26.16;40.39
26721;HTU21D;15950;51.112;6.966;2022-09-01T06:39:15;26.18;40.84
26721;HTU21D;15950;51.112;6.966;2022-09-01T06:41:16;26.18;40.30
26721;HTU21D;15950;51.112;6.966;2022-09-01T06:43:16;26.12;39.99
26721;HTU21D;15950;51.112;6.966;2022-09-01T06:45:19;26.09;39.93
26721;HTU21D;15950;51.112;6.966;2022-09-01T06:47:17;26.05;39.76
26721;HTU21D;15950;51.112;6.966;2022-09-01T06:49:19;26.01;39.74
26721;HTU21D;15950;51.112;6.966;2022-09-01T06:51:20;26.01;39.72
26721;HTU21D;15950;51.112;6.966;2022-09-01T06:53:18;25.99;39.66
26721;HTU21D;15950;51.112;6.966;2022-09-01T06:55:19;25.98;39.70
26721;HTU21D;15950;51.112;6.966;2022-09-01T06:57:19;25.99;39.70
26721;HTU21D;15950;51.112;6.966;2022-09-01T06:59:20;25.96;39.73
26721;HTU21D;15950;51.112;6.966;2022-09-01T07:01:21;25.88;39.76
26721;HTU21D;15950;51.112;6.966;2022-09-01T07:03:20;25.88;39.78
26721;HTU21D;15950;51.112;6.966;2022-09-01T07:05:22;25.86;39.85
26721;HTU21D;15950;51.112;6.966;2022-09-01T07:07:21;25.82;39.88
26721;HTU21D;15950;51.112;6.966;2022-09-01T07:09:22;25.84;39.93
26721;HTU21D;15950;51.112;6.966;2022-09-01T07:11:25;25.82;40.01
26721;HTU21D;15950;51.112;6.966;2022-09-01T07:13:22;25.82;39.97
26721;HTU21D;15950;51.112;6.966;2022-09-01T07:15:23;25.84;39.93
26721;HTU21D;15950;51.112;6.966;2022-09-01T07:17:23;25.74;39.75
26721;HTU21D;15950;51.112;6.966;2022-09-01T07:19:24;25.81;40.05
26721;HTU21D;15950;51.112;6.966;2022-09-01T07:21:26;25.81;40.03
26721;HTU21D;15950;51.112;6.966;2022-09-01T07:23:25;25.84;40.02
26721;HTU21D;15950;51.112;6.966;2022-09-01T07:25:25;25.81;40.07
26721;HTU21D;15950;51.112;6.966;2022-09-01T07:27:25;25.76;40.30
26721;HTU21D;15950;51.112;6.966;2022-09-01T07:29:26;25.85;40.17
26721;HTU21D;15950;51.112;6.966;2022-09-01T07:31:32;25.90;40.14
26721;HTU21D;15950;51.112;6.966;2022-09-01T07:33:27;25.94;40.10
26721;HTU21D;15950;51.112;6.966;2022-09-01T07:35:27;25.97;40.10
26721;HTU21D;15950;51.112;6.966;2022-09-01T07:37:27;26.04;40.13
26721;HTU21D;15950;51.112;6.966;2022-09-01T07:39:28;26.07;40.10
26721;HTU21D;15950;51.112;6.966;2022-09-01T07:41:28;26.14;39.97
26721;HTU21D;15950;51.112;6.966;2022-09-01T07:43:29;26.15;40.10
26721;HTU21D;15950;51.112;6.966;2022-09-01T07:45:29;26.16;40.10
26721;HTU21D;15950;51.112;6.966;2022-09-01T07:47:30;26.18;39.81
26721;HTU21D;15950;51.112;6.966;2022-09-01T07:49:30;26.21;39.85
26721;HTU21D;15950;51.112;6.966;2022-09-01T07:51:30;26.28;39.77
26721;HTU21D;15950;51.112;6.966;2022-09-01T07:53:33;26.37;39.78
26721;HTU21D;15950;51.112;6.966;2022-09-01T07:55:32;26.40;39.79
26721;HTU21D;15950;51.112;6.966;2022-09-01T07:57:32;26.39;39.83
26721;HTU21D;15950;51.112;6.966;2022-09-01T07:59:33;26.44;39.78
26721;HTU21D;15950;51.112;6.966;2022-09-01T08:01:33;26.46;39.74
26721;HTU21D;15950;51.112;6.966;2022-09-01T08:03:34;26.47;39.52
26721;HTU21D;15950;51.112;6.966;2022-09-01T08:05:34;26.49;39.27
26721;HTU21D;15950;51.112;6.966;2022-09-01T08:07:35;26.45;38.69
26721;HTU21D;15950;51.112;6.966;2022-09-01T08:09:36;26.41;38.18
26721;HTU21D;15950;51.112;6.966;2022-09-01T08:11:35;26.46;37.80
26721;HTU21D;15950;51.112;6.966;2022-09-01T08:13:36;26.45;37.46
26721;HTU21D;15950;51.112;6.966;2022-09-01T08:15:38;26.39;37.74
26721;HTU21D;15950;51.112;6.966;2022-09-01T08:17:37;26.26;37.73
26721;HTU21D;15950;51.112;6.966;2022-09-01T08:19:37;26.44;37.27
26721;HTU21D;15950;51.112;6.966;2022-09-01T08:21:37;26.45;36.65
26721;HTU21D;15950;51.112;6.966;2022-09-01T08:23:38;26.51;36.53
26721;HTU21D;15950;51.112;6.966;2022-09-01T08:25:39;26.51;36.76
26721;HTU21D;15950;51.112;6.966;2022-09-01T08:27:39;26.54;36.17
26721;HTU21D;15950;51.112;6.966;2022-09-01T08:29:39;26.50;36.24
26721;HTU21D;15950;51.112;6.966;2022-09-01T08:31:39;26.58;36.59
26721;HTU21D;15950;51.112;6.966;2022-09-01T08:33:41;26.58;36.53
26721;HTU21D;15950;51.112;6.966;2022-09-01T08:35:42;26.60;36.12
26721;HTU21D;15950;51.112;6.966;2022-09-01T08:37:42;26.59;35.82
26721;HTU21D;15950;51.112;6.966;2022-09-01T08:39:41;26.58;35.41
26721;HTU21D;15950;51.112;6.966;2022-09-01T08:41:46;26.64;35.28
26721;HTU21D;15950;51.112;6.966;2022-09-01T08:49:24;26.72;34.71
26721;HTU21D;15950;51.112;6.966;2022-09-01T08:55:17;26.78;34.04
26721;HTU21D;15950;51.112;6.966;2022-09-01T08:58:58;26.91;33.80
26721;HTU21D;15950;51.112;6.966;2022-09-01T09:01:08;26.91;33.83
26721;HTU21D;15950;51.112;6.966;2022-09-01T09:08:52;26.99;33.01
26721;HTU21D;15950;51.112;6.966;2022-09-01T09:16:31;27.09;32.02
26721;HTU21D;15950;51.112;6.966;2022-09-01T09:20:13;27.18;31.83
26721;HTU21D;15950;51.112;6.966;2022-09-01T09:22:17;27.22;31.79
26721;HTU21D;15950;51.112;6.966;2022-09-01T09:28:06;27.25;31.88
26721;HTU21D;15950;51.112;6.966;2022-09-01T09:33:55;27.26;31.86
26721;HTU21D;15950;51.112;6.966;2022-09-01T09:40:04;27.36;31.51
26721;HTU21D;15950;51.112;6.966;2022-09-01T09:45:46;27.41;31.64
26721;HTU21D;15950;51.112;6.966;2022-09-01T09:47:47;27.40;31.67
26721;HTU21D;15950;51.112;6.966;2022-09-01T09:49:47;27.37;31.90
26721;HTU21D;15950;51.112;6.966;2022-09-01T09:51:52;27.41;31.88
26721;HTU21D;15950;51.112;6.966;2022-09-01T09:53:48;27.37;31.83
26721;HTU21D;15950;51.112;6.966;2022-09-01T09:57:53;27.43;31.72
26721;HTU21D;15950;51.112;6.966;2022-09-01T09:59:56;27.31;31.93
26721;HTU21D;15950;51.112;6.966;2022-09-01T10:03:46;27.00;31.32
26721;HTU21D;15950;51.112;6.966;2022-09-01T10:07:36;26.73;31.52
26721;HTU21D;15950;51.112;6.966;2022-09-01T10:12:04;26.67;31.28
26721;HTU21D;15950;51.112;6.966;2022-09-01T10:15:11;26.54;31.64
26721;HTU21D;15950;51.112;6.966;2022-09-01T10:19:12;26.82;31.02
26721;HTU21D;15950;51.112;6.966;2022-09-01T10:25:03;26.65;30.75
26721;HTU21D;15950;51.112;6.966;2022-09-01T10:27:06;26.69;30.87
26721;HTU21D;15950;51.112;6.966;2022-09-01T10:31:03;26.48;31.03
26721;HTU21D;15950;51.112;6.966;2022-09-01T10:33:06;26.68;30.96
26721;HTU21D;15950;51.112;6.966;2022-09-01T10:35:05;26.70;30.46
26721;HTU21D;15950;51.112;6.966;2022-09-01T10:37:06;26.73;30.71
26721;HTU21D;15950;51.112;6.966;2022-09-01T10:39:10;26.76;30.79
26721;HTU21D;15950;51.112;6.966;2022-09-01T10:41:05;26.79;30.64
26721;HTU21D;15950;51.112;6.966;2022-09-01T10:46:59;26.92;30.35
26721;HTU21D;15950;51.112;6.966;2022-09-01T10:48:57;26.53;31.25
26721;HTU21D;15950;51.112;6.966;2022-09-01T10:54:54;26.68;31.30
26721;HTU21D;15950;51.112;6.966;2022-09-01T11:02:29;26.92;30.91
26721;HTU21D;15950;51.112;6.966;2022-09-01T11:10:48;27.02;30.77
26721;HTU21D;15950;51.112;6.966;2022-09-01T11:14:21;27.12;30.99
26721;HTU21D;15950;51.112;6.966;2022-09-01T11:18:26;27.01;30.57
26721;HTU21D;15950;51.112;6.966;2022-09-01T11:25:46;27.32;30.35
26721;HTU21D;15950;51.112;6.966;2022-09-01T11:29:55;27.27;30.93
26721;HTU21D;15950;51.112;6.966;2022-09-01T11:33:42;27.31;29.98
26721;HTU21D;15950;51.112;6.966;2022-09-01T11:37:24;27.33;30.12
26721;HTU21D;15950;51.112;6.966;2022-09-01T11:39:31;27.32;30.36
26721;HTU21D;15950;51.112;6.966;2022-09-01T11:45:18;27.21;30.74
26721;HTU21D;15950;51.112;6.966;2022-09-01T11:47:19;27.21;31.50
26721;HTU21D;15950;51.112;6.966;2022-09-01T11:55:05;26.95;32.39
26721;HTU21D;15950;51.112;6.966;2022-09-01T12:04:48;27.70;31.53
26721;HTU21D;15950;51.112;6.966;2022-09-01T12:10:38;27.10;31.83
26721;HTU21D;15950;51.112;6.966;2022-09-01T12:12:39;27.54;31.32
26721;HTU21D;15950;51.112;6.966;2022-09-01T12:14:40;27.48;31.65
26721;HTU21D;15950;51.112;6.966;2022-09-01T12:16:41;27.60;30.80
26721;HTU21D;15950;51.112;6.966;2022-09-01T12:18:46;27.67;30.54
26721;HTU21D;15950;51.112;6.966;2022-09-01T12:20:41;27.80;29.97
26721;HTU21D;15950;51.112;6.966;2022-09-01T12:22:42;27.73;29.97
26721;HTU21D;15950;51.112;6.966;2022-09-01T12:24:48;27.56;30.59
26721;HTU21D;15950;51.112;6.966;2022-09-01T12:26:44;27.34;30.93
26721;HTU21D;15950;51.112;6.966;2022-09-01T12:28:44;27.50;31.14
26721;HTU21D;15950;51.112;6.966;2022-09-01T12:30:43;27.52;30.72
26721;HTU21D;15950;51.112;6.966;2022-09-01T12:32:44;27.66;30.51
26721;HTU21D;15950;51.112;6.966;2022-09-01T12:34:58;27.60;30.45
26721;HTU21D;15950;51.112;6.966;2022-09-01T12:40:36;27.71;30.69
26721;HTU21D;15950;51.112;6.966;2022-09-01T12:42:36;27.69;30.18
26721;HTU21D;15950;51.112;6.966;2022-09-01T12:46:42;27.36;31.04
26721;HTU21D;15950;51.112;6.966;2022-09-01T12:48:40;27.59;30.86
26721;HTU21D;15950;51.112;6.966;2022-09-01T12:50:42;27.83;30.49
26721;HTU21D;15950;51.112;6.966;2022-09-01T12:52:50;27.83;30.68
26721;HTU21D;15950;51.112;6.966;2022-09-01T12:56:33;27.58;30.96
26721;HTU21D;15950;51.112;6.966;2022-09-01T12:58:32;27.62;30.67
26721;HTU21D;15950;51.112;6.966;2022-09-01T13:01:22;27.69;30.13
26721;HTU21D;15950;51.112;6.966;2022-09-01T13:02:35;27.56;30.47
26721;HTU21D;15950;51.112;6.966;2022-09-01T13:04:33;27.64;30.09
26721;HTU21D;15950;51.112;6.966;2022-09-01T13:06:33;27.79;30.41
26721;HTU21D;15950;51.112;6.966;2022-09-01T13:08:34;27.52;30.84
26721;HTU21D;15950;51.112;6.966;2022-09-01T13:10:40;27.35;31.64
26721;HTU21D;15950;51.112;6.966;2022-09-01T13:12:39;27.18;32.12
26721;HTU21D;15950;51.112;6.966;2022-09-01T13:14:35;27.48;31.48
26721;HTU21D;15950;51.112;6.966;2022-09-01T13:16:37;27.68;31.38
26721;HTU21D;15950;51.112;6.966;2022-09-01T13:18:37;27.22;31.93
26721;HTU21D;15950;51.112;6.966;2022-09-01T13:20:37;27.42;31.81
26721;HTU21D;15950;51.112;6.966;2022-09-01T13:22:38;27.58;31.39
26721;HTU21D;15950;51.112;6.966;2022-09-01T13:24:38;27.46;31.51
26721;HTU21D;15950;51.112;6.966;2022-09-01T13:26:39;27.61;31.49
26721;HTU21D;15950;51.112;6.966;2022-09-01T13:28:39;27.48;31.48
26721;HTU21D;15950;51.112;6.966;2022-09-01T13:30:40;27.65;31.31
26721;HTU21D;15950;51.112;6.966;2022-09-01T13:32:44;27.74;31.00
26721;HTU21D;15950;51.112;6.966;2022-09-01T13:34:40;27.69;30.81
26721;HTU21D;15950;51.112;6.966;2022-09-01T13:36:41;27.60;30.52
26721;HTU21D;15950;51.112;6.966;2022-09-01T13:38:41;27.68;30.83
26721;HTU21D;15950;51.112;6.966;2022-09-01T13:40:43;27.68;30.74
26721;HTU21D;15950;51.112;6.966;2022-09-01T13:42:47;27.81;30.67
26721;HTU21D;15950;51.112;6.966;2022-09-01T13:44:44;27.83;30.44
26721;HTU21D;15950;51.112;6.966;2022-09-01T13:46:44;27.82;30.15
26721;HTU21D;15950;51.112;6.966;2022-09-01T13:48:44;27.99;29.95
26721;HTU21D;15950;51.112;6.966;2022-09-01T13:50:47;28.04;29.97
26721;HTU21D;15950;51.112;6.966;2022-09-01T13:52:50;28.18;29.82
26721;HTU21D;15950;51.112;6.966;2022-09-01T13:54:45;27.96;29.87
26721;HTU21D;15950;51.112;6.966;2022-09-01T13:56:46;27.82;30.20
26721;HTU21D;15950;51.112;6.966;2022-09-01T13:58:46;28.06;30.26
26721;HTU21D;15950;51.112;6.966;2022-09-01T14:00:47;28.14;30.03
26721;HTU21D;15950;51.112;6.966;2022-09-01T14:02:50;28.17;29.77
26721;HTU21D;15950;51.112;6.966;2022-09-01T14:04:48;27.85;30.48
26721;HTU21D;15950;51.112;6.966;2022-09-01T14:06:48;27.72;31.04
26721;HTU21D;15950;51.112;6.966;2022-09-01T14:08:49;27.74;30.98
26721;HTU21D;15950;51.112;6.966;2022-09-01T14:10:51;27.96;30.79
26721;HTU21D;15950;51.112;6.966;2022-09-01T14:12:50;27.85;30.40
26721;HTU21D;15950;51.112;6.966;2022-09-01T14:14:50;27.34;31.10
26721;HTU21D;15950;51.112;6.966;2022-09-01T14:16:51;27.63;30.61
26721;HTU21D;15950;51.112;6.966;2022-09-01T14:18:51;27.55;30.68
26721;HTU21D;15950;51.112;6.966;2022-09-01T14:20:51;27.21;31.54
26721;HTU21D;15950;51.112;6.966;2022-09-01T14:22:52;27.06;31.75
26721;HTU21D;15950;51.112;6.966;2022-09-01T14:24:52;27.24;31.80
26721;HTU21D;15950;51.112;6.966;2022-09-01T14:26:53;27.33;31.30
26721;HTU21D;15950;51.112;6.966;2022-09-01T14:28:54;27.50;31.39
26721;HTU21D;15950;51.112;6.966;2022-09-01T14:30:54;27.58;31.01
26721;HTU21D;15950;51.112;6.966;2022-09-01T14:32:54;27.62;31.02
26721;HTU21D;15950;51.112;6.966;2022-09-01T14:34:56;27.32;31.32
26721;HTU21D;15950;51.112;6.966;2022-09-01T14:36:55;27.44;31.45
26721;HTU21D;15950;51.112;6.966;2022-09-01T14:38:56;27.54;31.32
26721;HTU21D;15950;51.112;6.966;2022-09-01T14:40:56;27.52;31.38
26721;HTU21D;15950;51.112;6.966;2022-09-01T14:42:56;27.48;31.32
26721;HTU21D;15950;51.112;6.966;2022-09-01T14:44:57;27.50;31.33
26721;HTU21D;15950;51.112;6.966;2022-09-01T14:46:57;27.50;31.16
26721;HTU21D;15950;51.112;6.966;2022-09-01T14:48:59;27.19;31.80
26721;HTU21D;15950;51.112;6.966;2022-09-01T14:50:59;27.22;31.66
26721;HTU21D;15950;51.112;6.966;2022-09-01T14:53:00;27.25;31.51
26721;HTU21D;15950;51.112;6.966;2022-09-01T14:54:59;27.34;31.13
26721;HTU21D;15950;51.112;6.966;2022-09-01T14:57:00;27.42;30.64
26721;HTU21D;15950;51.112;6.966;2022-09-01T14:59:00;27.53;30.50
26721;HTU21D;15950;51.112;6.966;2022-09-01T15:01:01;27.57;30.37
26721;HTU21D;15950;51.112;6.966;2022-09-01T15:03:01;27.63;30.41
26721;HTU21D;15950;51.112;6.966;2022-09-01T15:05:02;27.64;30.26
26721;HTU21D;15950;51.112;6.966;2022-09-01T15:07:02;27.62;30.09
26721;HTU21D;15950;51.112;6.966;2022-09-01T15:09:02;27.44;29.53
26721;HTU21D;15950;51.112;6.966;2022-09-01T15:11:10;27.48;29.58
26721;HTU21D;15950;51.112;6.966;2022-09-01T15:14:51;27.35;30.23
26721;HTU21D;15950;51.112;6.966;2022-09-01T15:16:51;27.13;31.45
26721;HTU21D;15950;51.112;6.966;2022-09-01T15:18:52;27.11;30.95
26721;HTU21D;15950;51.112;6.966;2022-09-01T15:20:52;27.31;30.06
26721;HTU21D;15950;51.112;6.966;2022-09-01T15:22:53;27.32;29.75
26721;HTU21D;15950;51.112;6.966;2022-09-01T15:24:53;27.36;29.12
26721;HTU21D;15950;51.112;6.966;2022-09-01T15:26:54;27.06;29.63
26721;HTU21D;15950;51.112;6.966;2022-09-01T15:28:55;27.18;30.05
26721;HTU21D;15950;51.112;6.966;2022-09-01T15:30:55;27.13;30.19
26721;HTU21D;15950;51.112;6.966;2022-09-01T15:32:55;27.26;30.13
26721;HTU21D;15950;51.112;6.966;2022-09-01T15:34:56;27.15;30.14
26721;HTU21D;15950;51.112;6.966;2022-09-01T15:36:56;27.24;29.99
26721;HTU21D;15950;51.112;6.966;2022-09-01T15:38:57;27.23;29.96
26721;HTU21D;15950;51.112;6.966;2022-09-01T15:40:57;27.12;29.90
26721;HTU21D;15950;51.112;6.966;2022-09-01T15:42:57;27.13;29.86
26721;HTU21D;15950;51.112;6.966;2022-09-01T15:44:58;27.18;29.75
26721;HTU21D;15950;51.112;6.966;2022-09-01T15:46:58;27.09;29.32
26721;HTU21D;15950;51.112;6.966;2022-09-01T15:48:59;27.06;29.09
26721;HTU21D;15950;51.112;6.966;2022-09-01T15:54:50;27.03;29.09
26721;HTU21D;15950;51.112;6.966;2022-09-01T15:56:50;27.04;29.32
26721;HTU21D;15950;51.112;6.966;2022-09-01T15:58:51;27.07;29.36
26721;HTU21D;15950;51.112;6.966;2022-09-01T16:00:51;27.08;29.46
26721;HTU21D;15950;51.112;6.966;2022-09-01T16:02:52;27.05;29.48
26721;HTU21D;15950;51.112;6.966;2022-09-01T16:04:52;27.04;29.68
26721;HTU21D;15950;51.112;6.966;2022-09-01T16:06:53;27.09;29.69
26721;HTU21D;15950;51.112;6.966;2022-09-01T16:08:54;26.97;29.89
26721;HTU21D;15950;51.112;6.966;2022-09-01T16:10:54;26.96;29.96
26721;HTU21D;15950;51.112;6.966;2022-09-01T16:12:55;26.99;30.04
26721;HTU21D;15950;51.112;6.966;2022-09-01T16:14:55;26.99;30.03
26721;HTU21D;15950;51.112;6.966;2022-09-01T16:17:02;27.06;30.42
26721;HTU21D;15950;51.112;6.966;2022-09-01T16:24:42;27.07;31.74
26721;HTU21D;15950;51.112;6.966;2022-09-01T16:30:26;27.14;31.66
26721;HTU21D;15950;51.112;6.966;2022-09-01T16:32:25;27.18;31.61
26721;HTU21D;15950;51.112;6.966;2022-09-01T16:34:25;27.24;31.55
26721;HTU21D;15950;51.112;6.966;2022-09-01T16:36:33;27.28;31.63
26721;HTU21D;15950;51.112;6.966;2022-09-01T16:40:25;27.26;31.76
26721;HTU21D;15950;51.112;6.966;2022-09-01T17:03:22;27.04;33.29
26721;HTU21D;15950;51.112;6.966;2022-09-01T17:07:28;27.03;33.59
26721;HTU21D;15950;51.112;6.966;2022-09-01T17:11:15;26.98;33.91
26721;HTU21D;15950;51.112;6.966;2022-09-01T17:13:16;26.83;34.35
26721;HTU21D;15950;51.112;6.966;2022-09-01T17:17:06;26.84;34.16
26721;HTU21D;15950;51.112;6.966;2022-09-01T17:20:53;26.88;34.22
26721;HTU21D;15950;51.112;6.966;2022-09-01T17:22:50;26.88;34.41
26721;HTU21D;15950;51.112;6.966;2022-09-01T17:24:58;26.84;34.39
26721;HTU21D;15950;51.112;6.966;2022-09-01T17:28:48;26.74;34.74
26721;HTU21D;15950;51.112;6.966;2022-09-01T17:44:19;26.19;36.30
26721;HTU21D;15950;51.112;6.966;2022-09-01T17:48:12;25.81;37.70
26721;HTU21D;15950;51.112;6.966;2022-09-01T17:57:55;25.54;38.91
26721;HTU21D;15950;51.112;6.966;2022-09-01T18:09:22;25.61;38.91
26721;HTU21D;15950;51.112;6.966;2022-09-01T18:13:25;25.28;39.77
26721;HTU21D;15950;51.112;6.966;2022-09-01T18:15:21;25.21;39.80
26721;HTU21D;15950;51.112;6.966;2022-09-01T18:17:27;25.24;39.71
26721;HTU21D;15950;51.112;6.966;2022-09-01T18:19:25;25.13;39.68
26721;HTU21D;15950;51.112;6.966;2022-09-01T18:25:19;24.77;40.14
26721;HTU21D;15950;51.112;6.966;2022-09-01T18:29:00;24.80;40.02
26721;HTU21D;15950;51.112;6.966;2022-09-01T18:38:56;25.01;39.72
26721;HTU21D;15950;51.112;6.966;2022-09-01T18:50:22;25.42;38.09
26721;HTU21D;15950;51.112;6.966;2022-09-01T18:54:15;25.69;36.98
26721;HTU21D;15950;51.112;6.966;2022-09-01T18:58:04;25.87;36.44
26721;HTU21D;15950;51.112;6.966;2022-09-01T19:01:55;26.01;36.11
26721;HTU21D;15950;51.112;6.966;2022-09-01T19:09:32;26.00;36.05
26721;HTU21D;15950;51.112;6.966;2022-09-01T19:25:03;25.85;36.08
26721;HTU21D;15950;51.112;6.966;2022-09-01T19:31:00;25.79;36.31
26721;HTU21D;15950;51.112;6.966;2022-09-01T19:34:44;25.80;36.15
26721;HTU21D;15950;51.112;6.966;2022-09-01T19:38:42;25.85;36.43
26721;HTU21D;15950;51.112;6.966;2022-09-01T19:40:44;25.87;36.44
26721;HTU21D;15950;51.112;6.966;2022-09-01T19:46:41;25.97;36.19
26721;HTU21D;15950;51.112;6.966;2022-09-01T19:50:33;26.04;36.12
26721;HTU21D;15950;51.112;6.966;2022-09-01T20:00:31;26.06;36.16
26721;HTU21D;15950;51.112;6.966;2022-09-01T20:03:58;26.02;36.04
26721;HTU21D;15950;51.112;6.966;2022-09-01T20:19:13;25.99;35.91
26721;HTU21D;15950;51.112;6.966;2022-09-01T20:21:10;25.89;36.17
26721;HTU21D;15950;51.112;6.966;2022-09-01T20:23:18;25.95;36.07
26721;HTU21D;15950;51.112;6.966;2022-09-01T20:30:59;25.89;36.13
26721;HTU21D;15950;51.112;6.966;2022-09-01T20:34:47;25.88;36.28
26721;HTU21D;15950;51.112;6.966;2022-09-01T20:38:45;25.99;36.59
26721;HTU21D;15950;51.112;6.966;2022-09-01T20:46:10;26.09;36.87
26721;HTU21D;15950;51.112;6.966;2022-09-01T20:48:13;26.11;36.90
26721;HTU21D;15950;51.112;6.966;2022-09-01T20:50:12;26.04;37.30
26721;HTU21D;15950;51.112;6.966;2022-09-01T21:00:07;26.08;36.88
26721;HTU21D;15950;51.112;6.966;2022-09-01T21:07:48;26.10;36.85
26721;HTU21D;15950;51.112;6.966;2022-09-01T21:17:26;26.03;36.21
26721;HTU21D;15950;51.112;6.966;2022-09-01T21:23:22;26.17;36.43
26721;HTU21D;15950;51.112;6.966;2022-09-01T21:25:22;26.20;36.53
26721;HTU21D;15950;51.112;6.966;2022-09-01T21:27:29;26.19;36.34
26721;HTU21D;15950;51.112;6.966;2022-09-01T21:31:23;26.09;36.17
26721;HTU21D;15950;51.112;6.966;2022-09-01T21:33:26;26.13;36.03
26721;HTU21D;15950;51.112;6.966;2022-09-01T21:35:24;26.14;35.90
26721;HTU21D;15950;51.112;6.966;2022-09-01T21:37:26;26.17;36.12
26721;HTU21D;15950;51.112;6.966;2022-09-01T21:39:25;26.21;35.92
26721;HTU21D;15950;51.112;6.966;2022-09-01T21:41:25;26.23;35.78
26721;HTU21D;15950;51.112;6.966;2022-09-01T21:43:32;26.22;35.79
26721;HTU21D;15950;51.112;6.966;2022-09-01T21:45:26;26.18;35.71
26721;HTU21D;15950;51.112;6.966;2022-09-01T21:47:27;26.12;35.88
26721;HTU21D;15950;51.112;6.966;2022-09-01T21:49:27;26.16;35.87
26721;HTU21D;15950;51.112;6.966;2022-09-01T21:51:28;26.13;35.73
26721;HTU21D;15950;51.112;6.966;2022-09-01T21:53:28;26.15;35.99
26721;HTU21D;15950;51.112;6.966;2022-09-01T21:55:28;26.14;35.92
26721;HTU21D;15950;51.112;6.966;2022-09-01T21:57:29;26.15;35.76
26721;HTU21D;15950;51.112;6.966;2022-09-01T21:59:29;26.12;35.81
26721;HTU21D;15950;51.112;6.966;2022-09-01T22:01:33;26.12;35.68
26721;HTU21D;15950;51.112;6.966;2022-09-01T22:03:30;26.10;35.66
26721;HTU21D;15950;51.112;6.966;2022-09-01T22:05:30;26.08;35.79
26721;HTU21D;15950;51.112;6.966;2022-09-01T22:07:35;26.05;35.73
26721;HTU21D;15950;51.112;6.966;2022-09-01T22:09:32;26.06;35.74
26721;HTU21D;15950;51.112;6.966;2022-09-01T22:11:34;25.95;35.73
26721;HTU21D;15950;51.112;6.966;2022-09-01T22:13:33;26.06;36.02
26721;HTU21D;15950;51.112;6.966;2022-09-01T22:15:33;26.03;35.78
26721;HTU21D;15950;51.112;6.966;2022-09-01T22:17:34;26.06;35.84
26721;HTU21D;15950;51.112;6.966;2022-09-01T22:19:35;26.00;35.78
26721;HTU21D;15950;51.112;6.966;2022-09-01T22:21:35;26.04;35.89
26721;HTU21D;15950;51.112;6.966;2022-09-01T22:23:35;26.03;35.60
26721;HTU21D;15950;51.112;6.966;2022-09-01T22:25:40;26.03;35.43
26721;HTU21D;15950;51.112;6.966;2022-09-01T22:27:36;26.02;35.82
26721;HTU21D;15950;51.112;6.966;2022-09-01T22:29:37;25.97;35.73
26721;HTU21D;15950;51.112;6.966;2022-09-01T22:31:38;26.00;35.92
26721;HTU21D;15950;51.112;6.966;2022-09-01T22:33:37;25.99;35.62
26721;HTU21D;15950;51.112;6.966;2022-09-01T22:35:44;25.94;35.79
26721;HTU21D;15950;51.112;6.966;2022-09-01T22:37:38;25.92;35.84
26721;HTU21D;15950;51.112;6.966;2022-09-01T22:39:38;25.96;36.01
26721;HTU21D;15950;51.112;6.966;2022-09-01T22:41:40;25.91;35.66
26721;HTU21D;15950;51.112;6.966;2022-09-01T22:43:39;25.96;35.77